sensor_id;sensor_type;location;lat;lon;timestamp;P1;durP1;ratioP1;P2;durP2;ratioP2
75971;SDS011;64651;47.540;19.088;2023-05-10T00:04:48;9.27;;;2.97;;
75971;SDS011;64651;47.540;19.088;2023-05-10T00:09:50;8.82;;;3.30;;
75971;SDS011;64651;47.540;19.088;2023-05-10T00:14:53;8.90;;;3.20;;
75971;SDS011;64651;47.540;19.088;2023-05-10T00:19:55;10.35;;;2.72;;
75971;SDS011;64651;47.540;19.088;2023-05-10T00:24:57;7.20;;;2.72;;
75971;SDS011;64651;47.540;19.088;2023-05-10T00:30:00;7.50;;;2.77;;
75971;SDS011;64651;47.540;19.088;2023-05-10T00:35:02;8.13;;;2.90;;
75971;SDS011;64651;47.540;19.088;2023-05-10T00:40:05;7.80;;;3.07;;
75971;SDS011;64651;47.540;19.088;2023-05-10T00:45:08;9.55;;;3.20;;
75971;SDS011;64651;47.540;19.088;2023-05-10T00:50:10;10.30;;;3.30;;
75971;SDS011;64651;47.540;19.088;2023-05-10T00:55:12;8.80;;;3.47;;
75971;SDS011;64651;47.540;19.088;2023-05-10T01:00:15;9.93;;;3.83;;
75971;SDS011;64651;47.540;19.088;2023-05-10T01:05:20;9.20;;;3.27;;
75971;SDS011;64651;47.540;19.088;2023-05-10T01:10:22;8.60;;;3.20;;
75971;SDS011;64651;47.540;19.088;2023-05-10T01:15:25;8.52;;;3.30;;
75971;SDS011;64651;47.540;19.088;2023-05-10T01:20:42;7.53;;;3.17;;
75971;SDS011;64651;47.540;19.088;2023-05-10T01:41:54;9.63;;;3.62;;
75971;SDS011;64651;47.540;19.088;2023-05-10T01:47:17;8.27;;;3.30;;
75971;SDS011;64651;47.540;19.088;2023-05-10T01:52:42;8.35;;;3.22;;
75971;SDS011;64651;47.540;19.088;2023-05-10T01:57:48;8.70;;;3.80;;
75971;SDS011;64651;47.540;19.088;2023-05-10T02:02:55;8.80;;;3.62;;
75971;SDS011;64651;47.540;19.088;2023-05-10T02:07:58;8.07;;;3.37;;
75971;SDS011;64651;47.540;19.088;2023-05-10T02:13:03;8.13;;;3.83;;
75971;SDS011;64651;47.540;19.088;2023-05-10T02:18:08;9.68;;;3.80;;
75971;SDS011;64651;47.540;19.088;2023-05-10T02:23:13;9.23;;;3.40;;
75971;SDS011;64651;47.540;19.088;2023-05-10T02:28:17;10.63;;;4.05;;
75971;SDS011;64651;47.540;19.088;2023-05-10T02:33:20;9.23;;;3.67;;
75971;SDS011;64651;47.540;19.088;2023-05-10T02:38:24;8.33;;;3.60;;
75971;SDS011;64651;47.540;19.088;2023-05-10T02:43:28;9.48;;;3.75;;
75971;SDS011;64651;47.540;19.088;2023-05-10T02:48:34;7.67;;;3.30;;
75971;SDS011;64651;47.540;19.088;2023-05-10T02:53:36;8.93;;;3.33;;
75971;SDS011;64651;47.540;19.088;2023-05-10T02:58:42;8.82;;;3.97;;
75971;SDS011;64651;47.540;19.088;2023-05-10T03:03:44;11.83;;;3.70;;
75971;SDS011;64651;47.540;19.088;2023-05-10T03:08:47;8.27;;;3.90;;
75971;SDS011;64651;47.540;19.088;2023-05-10T03:14:05;8.00;;;3.43;;
75971;SDS011;64651;47.540;19.088;2023-05-10T03:19:30;8.25;;;3.62;;
75971;SDS011;64651;47.540;19.088;2023-05-10T03:24:41;8.73;;;3.70;;
75971;SDS011;64651;47.540;19.088;2023-05-10T03:29:44;8.90;;;3.50;;
75971;SDS011;64651;47.540;19.088;2023-05-10T03:34:48;8.98;;;4.00;;
75971;SDS011;64651;47.540;19.088;2023-05-10T03:39:50;9.30;;;4.00;;
75971;SDS011;64651;47.540;19.088;2023-05-10T03:44:52;12.80;;;4.18;;
75971;SDS011;64651;47.540;19.088;2023-05-10T03:49:54;10.43;;;3.95;;
75971;SDS011;64651;47.540;19.088;2023-05-10T03:54:57;10.17;;;3.70;;
75971;SDS011;64651;47.540;19.088;2023-05-10T03:59:59;9.18;;;4.20;;
75971;SDS011;64651;47.540;19.088;2023-05-10T04:05:01;9.60;;;3.67;;
75971;SDS011;64651;47.540;19.088;2023-05-10T04:10:04;9.10;;;3.78;;
75971;SDS011;64651;47.540;19.088;2023-05-10T04:15:07;8.52;;;3.55;;
75971;SDS011;64651;47.540;19.088;2023-05-10T04:20:10;8.47;;;3.87;;
75971;SDS011;64651;47.540;19.088;2023-05-10T04:25:12;10.35;;;4.15;;
75971;SDS011;64651;47.540;19.088;2023-05-10T04:30:15;9.77;;;4.43;;
75971;SDS011;64651;47.540;19.088;2023-05-10T04:35:17;10.18;;;4.30;;
75971;SDS011;64651;47.540;19.088;2023-05-10T04:40:20;9.38;;;4.65;;
75971;SDS011;64651;47.540;19.088;2023-05-10T04:45:22;10.63;;;4.43;;
75971;SDS011;64651;47.540;19.088;2023-05-10T04:50:24;12.93;;;4.82;;
75971;SDS011;64651;47.540;19.088;2023-05-10T04:55:26;10.93;;;4.17;;
75971;SDS011;64651;47.540;19.088;2023-05-10T05:00:29;10.65;;;5.20;;
75971;SDS011;64651;47.540;19.088;2023-05-10T05:05:31;9.40;;;4.40;;
75971;SDS011;64651;47.540;19.088;2023-05-10T05:10:33;12.87;;;4.67;;
75971;SDS011;64651;47.540;19.088;2023-05-10T05:15:35;12.70;;;5.10;;
75971;SDS011;64651;47.540;19.088;2023-05-10T05:20:37;11.47;;;5.13;;
75971;SDS011;64651;47.540;19.088;2023-05-10T05:25:39;10.95;;;4.93;;
75971;SDS011;64651;47.540;19.088;2023-05-10T05:30:42;11.23;;;5.28;;
75971;SDS011;64651;47.540;19.088;2023-05-10T05:35:44;10.23;;;5.00;;
75971;SDS011;64651;47.540;19.088;2023-05-10T05:40:49;10.63;;;5.05;;
75971;SDS011;64651;47.540;19.088;2023-05-10T05:45:54;14.27;;;6.13;;
75971;SDS011;64651;47.540;19.088;2023-05-10T05:50:59;10.90;;;5.18;;
75971;SDS011;64651;47.540;19.088;2023-05-10T05:56:02;10.43;;;4.90;;
75971;SDS011;64651;47.540;19.088;2023-05-10T06:01:05;11.23;;;5.30;;
75971;SDS011;64651;47.540;19.088;2023-05-10T06:06:07;11.10;;;5.50;;
75971;SDS011;64651;47.540;19.088;2023-05-10T06:11:09;10.60;;;5.00;;
75971;SDS011;64651;47.540;19.088;2023-05-10T06:16:12;10.52;;;4.90;;
75971;SDS011;64651;47.540;19.088;2023-05-10T06:21:15;10.98;;;4.93;;
75971;SDS011;64651;47.540;19.088;2023-05-10T06:26:17;10.83;;;5.10;;
75971;SDS011;64651;47.540;19.088;2023-05-10T06:31:20;10.23;;;5.30;;
75971;SDS011;64651;47.540;19.088;2023-05-10T06:36:22;10.83;;;5.40;;
75971;SDS011;64651;47.540;19.088;2023-05-10T06:41:26;12.00;;;5.50;;
75971;SDS011;64651;47.540;19.088;2023-05-10T06:46:34;10.00;;;5.18;;
75971;SDS011;64651;47.540;19.088;2023-05-10T06:51:37;11.53;;;5.73;;
75971;SDS011;64651;47.540;19.088;2023-05-10T06:56:39;10.40;;;5.12;;
75971;SDS011;64651;47.540;19.088;2023-05-10T07:01:41;11.70;;;5.17;;
75971;SDS011;64651;47.540;19.088;2023-05-10T07:06:43;11.68;;;5.15;;
75971;SDS011;64651;47.540;19.088;2023-05-10T07:11:47;11.27;;;5.30;;
75971;SDS011;64651;47.540;19.088;2023-05-10T07:16:50;12.60;;;6.60;;
75971;SDS011;64651;47.540;19.088;2023-05-10T07:21:52;9.63;;;5.05;;
75971;SDS011;64651;47.540;19.088;2023-05-10T07:26:54;11.90;;;5.57;;
75971;SDS011;64651;47.540;19.088;2023-05-10T07:31:56;8.70;;;4.82;;
75971;SDS011;64651;47.540;19.088;2023-05-10T07:37:00;12.18;;;5.22;;
75971;SDS011;64651;47.540;19.088;2023-05-10T07:42:02;10.00;;;5.50;;
75971;SDS011;64651;47.540;19.088;2023-05-10T07:47:05;9.90;;;5.95;;
75971;SDS011;64651;47.540;19.088;2023-05-10T07:52:07;9.87;;;5.30;;
75971;SDS011;64651;47.540;19.088;2023-05-10T07:57:09;9.45;;;5.28;;
75971;SDS011;64651;47.540;19.088;2023-05-10T08:02:11;10.00;;;5.03;;
75971;SDS011;64651;47.540;19.088;2023-05-10T08:07:14;8.40;;;4.90;;
75971;SDS011;64651;47.540;19.088;2023-05-10T08:12:16;9.20;;;5.20;;
75971;SDS011;64651;47.540;19.088;2023-05-10T08:17:18;11.03;;;5.03;;
75971;SDS011;64651;47.540;19.088;2023-05-10T08:22:22;9.27;;;4.55;;
75971;SDS011;64651;47.540;19.088;2023-05-10T08:27:24;10.18;;;4.53;;
75971;SDS011;64651;47.540;19.088;2023-05-10T08:32:27;8.13;;;4.90;;
75971;SDS011;64651;47.540;19.088;2023-05-10T08:37:29;8.70;;;5.18;;
75971;SDS011;64651;47.540;19.088;2023-05-10T08:42:33;8.27;;;5.33;;
75971;SDS011;64651;47.540;19.088;2023-05-10T08:47:37;7.75;;;4.70;;
75971;SDS011;64651;47.540;19.088;2023-05-10T08:52:41;9.25;;;5.22;;
75971;SDS011;64651;47.540;19.088;2023-05-10T08:57:43;8.83;;;5.50;;
75971;SDS011;64651;47.540;19.088;2023-05-10T09:02:46;7.85;;;5.07;;
75971;SDS011;64651;47.540;19.088;2023-05-10T09:07:51;9.03;;;6.43;;
75971;SDS011;64651;47.540;19.088;2023-05-10T09:12:55;8.90;;;6.45;;
75971;SDS011;64651;47.540;19.088;2023-05-10T09:18:00;9.52;;;6.10;;
75971;SDS011;64651;47.540;19.088;2023-05-10T09:23:04;10.90;;;6.37;;
75971;SDS011;64651;47.540;19.088;2023-05-10T09:28:07;9.82;;;6.72;;
75971;SDS011;64651;47.540;19.088;2023-05-10T09:33:11;9.40;;;6.53;;
75971;SDS011;64651;47.540;19.088;2023-05-10T09:38:13;8.20;;;6.25;;
75971;SDS011;64651;47.540;19.088;2023-05-10T09:43:15;8.80;;;6.45;;
75971;SDS011;64651;47.540;19.088;2023-05-10T09:48:17;8.23;;;6.00;;
75971;SDS011;64651;47.540;19.088;2023-05-10T09:53:19;9.10;;;6.12;;
75971;SDS011;64651;47.540;19.088;2023-05-10T09:58:22;9.73;;;6.33;;
75971;SDS011;64651;47.540;19.088;2023-05-10T10:03:24;11.20;;;7.05;;
75971;SDS011;64651;47.540;19.088;2023-05-10T10:08:28;8.55;;;5.80;;
75971;SDS011;64651;47.540;19.088;2023-05-10T10:13:30;7.90;;;5.60;;
75971;SDS011;64651;47.540;19.088;2023-05-10T10:18:33;8.57;;;5.75;;
75971;SDS011;64651;47.540;19.088;2023-05-10T10:23:40;8.87;;;5.63;;
75971;SDS011;64651;47.540;19.088;2023-05-10T10:38:57;8.07;;;6.00;;
75971;SDS011;64651;47.540;19.088;2023-05-10T10:44:46;8.55;;;5.15;;
75971;SDS011;64651;47.540;19.088;2023-05-10T10:49:42;7.53;;;4.30;;
75971;SDS011;64651;47.540;19.088;2023-05-10T10:54:50;7.82;;;4.60;;
75971;SDS011;64651;47.540;19.088;2023-05-10T11:00:17;7.72;;;4.62;;
75971;SDS011;64651;47.540;19.088;2023-05-10T11:10:30;7.75;;;4.72;;
75971;SDS011;64651;47.540;19.088;2023-05-10T11:15:36;9.10;;;5.27;;
75971;SDS011;64651;47.540;19.088;2023-05-10T11:20:39;8.57;;;5.07;;
75971;SDS011;64651;47.540;19.088;2023-05-10T11:25:42;9.05;;;5.30;;
75971;SDS011;64651;47.540;19.088;2023-05-10T11:30:45;8.50;;;5.67;;
75971;SDS011;64651;47.540;19.088;2023-05-10T11:35:48;10.82;;;6.37;;
75971;SDS011;64651;47.540;19.088;2023-05-10T11:40:51;8.13;;;5.00;;
75971;SDS011;64651;47.540;19.088;2023-05-10T11:45:53;7.85;;;5.50;;
75971;SDS011;64651;47.540;19.088;2023-05-10T11:50:56;13.60;;;6.22;;
75971;SDS011;64651;47.540;19.088;2023-05-10T11:56:03;11.57;;;5.00;;
75971;SDS011;64651;47.540;19.088;2023-05-10T12:01:08;7.10;;;4.20;;
75971;SDS011;64651;47.540;19.088;2023-05-10T12:06:12;7.27;;;4.17;;
75971;SDS011;64651;47.540;19.088;2023-05-10T12:11:14;9.60;;;4.35;;
75971;SDS011;64651;47.540;19.088;2023-05-10T12:16:20;7.47;;;3.58;;
75971;SDS011;64651;47.540;19.088;2023-05-10T12:21:24;7.50;;;3.50;;
75971;SDS011;64651;47.540;19.088;2023-05-10T12:26:27;6.90;;;3.60;;
75971;SDS011;64651;47.540;19.088;2023-05-10T12:31:30;11.30;;;3.27;;
75971;SDS011;64651;47.540;19.088;2023-05-10T12:36:32;8.18;;;3.67;;
75971;SDS011;64651;47.540;19.088;2023-05-10T12:41:40;8.73;;;3.67;;
75971;SDS011;64651;47.540;19.088;2023-05-10T12:46:44;8.57;;;3.40;;
75971;SDS011;64651;47.540;19.088;2023-05-10T12:51:46;7.00;;;3.50;;
75971;SDS011;64651;47.540;19.088;2023-05-10T12:56:48;6.77;;;3.33;;
75971;SDS011;64651;47.540;19.088;2023-05-10T13:01:50;7.53;;;3.65;;
75971;SDS011;64651;47.540;19.088;2023-05-10T13:06:53;8.23;;;3.10;;
75971;SDS011;64651;47.540;19.088;2023-05-10T13:11:57;7.50;;;2.97;;
75971;SDS011;64651;47.540;19.088;2023-05-10T13:16:59;6.37;;;3.40;;
75971;SDS011;64651;47.540;19.088;2023-05-10T13:22:02;6.03;;;2.87;;
75971;SDS011;64651;47.540;19.088;2023-05-10T13:27:04;6.07;;;2.95;;
75971;SDS011;64651;47.540;19.088;2023-05-10T13:32:07;6.57;;;3.20;;
75971;SDS011;64651;47.540;19.088;2023-05-10T13:37:09;11.90;;;4.00;;
75971;SDS011;64651;47.540;19.088;2023-05-10T13:42:11;8.02;;;3.62;;
75971;SDS011;64651;47.540;19.088;2023-05-10T13:47:13;8.47;;;3.83;;
75971;SDS011;64651;47.540;19.088;2023-05-10T13:52:16;6.62;;;3.40;;
75971;SDS011;64651;47.540;19.088;2023-05-10T13:57:18;8.13;;;4.68;;
75971;SDS011;64651;47.540;19.088;2023-05-10T14:02:20;7.60;;;3.63;;
75971;SDS011;64651;47.540;19.088;2023-05-10T14:07:22;6.25;;;3.70;;
75971;SDS011;64651;47.540;19.088;2023-05-10T14:12:25;9.27;;;3.97;;
75971;SDS011;64651;47.540;19.088;2023-05-10T14:17:27;7.32;;;3.50;;
75971;SDS011;64651;47.540;19.088;2023-05-10T14:22:29;8.00;;;3.90;;
75971;SDS011;64651;47.540;19.088;2023-05-10T14:27:31;6.80;;;3.93;;
75971;SDS011;64651;47.540;19.088;2023-05-10T14:32:34;7.70;;;4.18;;
75971;SDS011;64651;47.540;19.088;2023-05-10T14:37:38;7.43;;;4.00;;
75971;SDS011;64651;47.540;19.088;2023-05-10T14:42:41;8.95;;;4.35;;
75971;SDS011;64651;47.540;19.088;2023-05-10T14:47:44;7.50;;;3.70;;
75971;SDS011;64651;47.540;19.088;2023-05-10T14:52:46;7.70;;;4.00;;
75971;SDS011;64651;47.540;19.088;2023-05-10T14:57:48;9.43;;;3.90;;
75971;SDS011;64651;47.540;19.088;2023-05-10T15:02:52;9.33;;;3.53;;
75971;SDS011;64651;47.540;19.088;2023-05-10T15:07:54;6.75;;;2.70;;
75971;SDS011;64651;47.540;19.088;2023-05-10T15:12:57;6.93;;;2.70;;
75971;SDS011;64651;47.540;19.088;2023-05-10T15:17:59;6.10;;;2.43;;
75971;SDS011;64651;47.540;19.088;2023-05-10T15:23:02;7.35;;;2.10;;
75971;SDS011;64651;47.540;19.088;2023-05-10T15:28:04;6.43;;;2.43;;
75971;SDS011;64651;47.540;19.088;2023-05-10T15:33:06;7.90;;;2.40;;
75971;SDS011;64651;47.540;19.088;2023-05-10T15:38:10;5.65;;;2.20;;
75971;SDS011;64651;47.540;19.088;2023-05-10T15:43:13;6.33;;;2.47;;
75971;SDS011;64651;47.540;19.088;2023-05-10T15:48:15;7.05;;;2.40;;
75971;SDS011;64651;47.540;19.088;2023-05-10T15:53:18;7.80;;;3.03;;
75971;SDS011;64651;47.540;19.088;2023-05-10T15:58:20;7.57;;;3.12;;
75971;SDS011;64651;47.540;19.088;2023-05-10T16:03:22;7.80;;;3.70;;
75971;SDS011;64651;47.540;19.088;2023-05-10T16:08:26;6.83;;;3.20;;
75971;SDS011;64651;47.540;19.088;2023-05-10T16:13:31;11.68;;;4.20;;
75971;SDS011;64651;47.540;19.088;2023-05-10T16:18:33;7.87;;;2.70;;
75971;SDS011;64651;47.540;19.088;2023-05-10T16:23:36;6.40;;;2.80;;
75971;SDS011;64651;47.540;19.088;2023-05-10T16:28:38;7.85;;;3.30;;
75971;SDS011;64651;47.540;19.088;2023-05-10T16:33:41;6.87;;;2.50;;
75971;SDS011;64651;47.540;19.088;2023-05-10T16:38:44;7.05;;;3.10;;
75971;SDS011;64651;47.540;19.088;2023-05-10T16:43:46;8.13;;;3.67;;
75971;SDS011;64651;47.540;19.088;2023-05-10T16:48:48;8.40;;;2.90;;
75971;SDS011;64651;47.540;19.088;2023-05-10T16:53:51;8.63;;;3.70;;
75971;SDS011;64651;47.540;19.088;2023-05-10T16:58:54;7.60;;;2.93;;
75971;SDS011;64651;47.540;19.088;2023-05-10T17:03:56;7.82;;;3.00;;
75971;SDS011;64651;47.540;19.088;2023-05-10T17:08:58;8.63;;;3.07;;
75971;SDS011;64651;47.540;19.088;2023-05-10T17:14:01;8.63;;;4.22;;
75971;SDS011;64651;47.540;19.088;2023-05-10T17:19:04;7.85;;;3.00;;
75971;SDS011;64651;47.540;19.088;2023-05-10T17:24:06;6.70;;;2.90;;
75971;SDS011;64651;47.540;19.088;2023-05-10T17:29:09;7.53;;;2.90;;
75971;SDS011;64651;47.540;19.088;2023-05-10T17:34:11;8.77;;;3.13;;
75971;SDS011;64651;47.540;19.088;2023-05-10T17:39:13;7.15;;;2.85;;
75971;SDS011;64651;47.540;19.088;2023-05-10T17:44:16;9.35;;;3.08;;
75971;SDS011;64651;47.540;19.088;2023-05-10T17:49:18;7.20;;;2.93;;
75971;SDS011;64651;47.540;19.088;2023-05-10T17:54:20;7.80;;;3.35;;
75971;SDS011;64651;47.540;19.088;2023-05-10T17:59:22;7.83;;;2.90;;
75971;SDS011;64651;47.540;19.088;2023-05-10T18:04:25;6.80;;;3.00;;
75971;SDS011;64651;47.540;19.088;2023-05-10T18:09:27;7.00;;;3.03;;
75971;SDS011;64651;47.540;19.088;2023-05-10T18:14:29;8.40;;;2.73;;
75971;SDS011;64651;47.540;19.088;2023-05-10T18:19:41;7.57;;;2.55;;
75971;SDS011;64651;47.540;19.088;2023-05-10T18:24:43;6.93;;;2.50;;
75971;SDS011;64651;47.540;19.088;2023-05-10T18:29:47;8.00;;;2.90;;
75971;SDS011;64651;47.540;19.088;2023-05-10T18:34:50;6.82;;;2.95;;
75971;SDS011;64651;47.540;19.088;2023-05-10T18:39:54;7.03;;;2.60;;
75971;SDS011;64651;47.540;19.088;2023-05-10T18:44:57;7.18;;;2.72;;
75971;SDS011;64651;47.540;19.088;2023-05-10T18:49:59;7.23;;;2.70;;
75971;SDS011;64651;47.540;19.088;2023-05-10T18:55:01;9.05;;;2.97;;
75971;SDS011;64651;47.540;19.088;2023-05-10T19:00:04;9.45;;;2.83;;
75971;SDS011;64651;47.540;19.088;2023-05-10T19:05:08;9.30;;;2.67;;
75971;SDS011;64651;47.540;19.088;2023-05-10T19:10:10;7.57;;;2.40;;
75971;SDS011;64651;47.540;19.088;2023-05-10T19:15:16;7.90;;;2.53;;
75971;SDS011;64651;47.540;19.088;2023-05-10T19:20:22;7.05;;;2.40;;
75971;SDS011;64651;47.540;19.088;2023-05-10T19:25:25;8.43;;;3.00;;
75971;SDS011;64651;47.540;19.088;2023-05-10T19:30:30;9.37;;;3.10;;
75971;SDS011;64651;47.540;19.088;2023-05-10T19:35:32;8.38;;;3.55;;
75971;SDS011;64651;47.540;19.088;2023-05-10T19:40:34;7.70;;;2.80;;
75971;SDS011;64651;47.540;19.088;2023-05-10T19:45:37;12.98;;;3.62;;
75971;SDS011;64651;47.540;19.088;2023-05-10T19:50:39;8.55;;;2.70;;
75971;SDS011;64651;47.540;19.088;2023-05-10T19:55:41;7.40;;;2.80;;
75971;SDS011;64651;47.540;19.088;2023-05-10T20:00:43;7.45;;;2.33;;
75971;SDS011;64651;47.540;19.088;2023-05-10T20:05:46;10.50;;;2.80;;
75971;SDS011;64651;47.540;19.088;2023-05-10T20:10:48;7.57;;;2.90;;
75971;SDS011;64651;47.540;19.088;2023-05-10T20:15:53;7.80;;;3.03;;
75971;SDS011;64651;47.540;19.088;2023-05-10T20:21:00;9.70;;;2.87;;
75971;SDS011;64651;47.540;19.088;2023-05-10T20:26:02;7.53;;;3.20;;
75971;SDS011;64651;47.540;19.088;2023-05-10T20:31:05;8.17;;;3.03;;
75971;SDS011;64651;47.540;19.088;2023-05-10T20:36:07;15.13;;;7.05;;
75971;SDS011;64651;47.540;19.088;2023-05-10T20:41:10;12.95;;;5.05;;
75971;SDS011;64651;47.540;19.088;2023-05-10T20:46:12;11.30;;;3.93;;
75971;SDS011;64651;47.540;19.088;2023-05-10T20:51:14;9.93;;;3.90;;
75971;SDS011;64651;47.540;19.088;2023-05-10T20:56:17;10.30;;;3.57;;
75971;SDS011;64651;47.540;19.088;2023-05-10T21:01:19;10.13;;;3.60;;
75971;SDS011;64651;47.540;19.088;2023-05-10T21:06:21;8.80;;;3.20;;
75971;SDS011;64651;47.540;19.088;2023-05-10T21:11:23;7.43;;;3.07;;
75971;SDS011;64651;47.540;19.088;2023-05-10T21:16:26;8.57;;;3.25;;
75971;SDS011;64651;47.540;19.088;2023-05-10T21:21:28;8.20;;;3.13;;
75971;SDS011;64651;47.540;19.088;2023-05-10T21:26:31;8.65;;;3.00;;
75971;SDS011;64651;47.540;19.088;2023-05-10T21:31:33;8.90;;;3.30;;
75971;SDS011;64651;47.540;19.088;2023-05-10T21:36:35;8.73;;;3.20;;
75971;SDS011;64651;47.540;19.088;2023-05-10T21:41:37;8.80;;;3.10;;
75971;SDS011;64651;47.540;19.088;2023-05-10T21:46:39;8.83;;;3.20;;
75971;SDS011;64651;47.540;19.088;2023-05-10T21:51:42;8.60;;;3.37;;
75971;SDS011;64651;47.540;19.088;2023-05-10T21:56:44;7.70;;;2.95;;
75971;SDS011;64651;47.540;19.088;2023-05-10T22:01:46;7.43;;;3.10;;
75971;SDS011;64651;47.540;19.088;2023-05-10T22:06:48;7.72;;;3.03;;
75971;SDS011;64651;47.540;19.088;2023-05-10T22:11:51;7.47;;;2.97;;
75971;SDS011;64651;47.540;19.088;2023-05-10T22:16:53;11.60;;;2.90;;
75971;SDS011;64651;47.540;19.088;2023-05-10T22:21:55;7.28;;;3.20;;
75971;SDS011;64651;47.540;19.088;2023-05-10T22:26:57;8.43;;;3.00;;
75971;SDS011;64651;47.540;19.088;2023-05-10T22:32:00;7.62;;;3.10;;
75971;SDS011;64651;47.540;19.088;2023-05-10T22:37:06;8.33;;;2.80;;
75971;SDS011;64651;47.540;19.088;2023-05-10T22:42:08;7.28;;;2.92;;
75971;SDS011;64651;47.540;19.088;2023-05-10T22:47:10;8.70;;;2.80;;
75971;SDS011;64651;47.540;19.088;2023-05-10T22:52:13;8.85;;;2.90;;
75971;SDS011;64651;47.540;19.088;2023-05-10T22:57:15;10.23;;;3.00;;
75971;SDS011;64651;47.540;19.088;2023-05-10T23:02:17;8.27;;;2.80;;
75971;SDS011;64651;47.540;19.088;2023-05-10T23:07:20;8.85;;;2.53;;
75971;SDS011;64651;47.540;19.088;2023-05-10T23:12:22;7.57;;;3.00;;
75971;SDS011;64651;47.540;19.088;2023-05-10T23:17:24;8.27;;;2.60;;
75971;SDS011;64651;47.540;19.088;2023-05-10T23:22:27;7.97;;;2.17;;
75971;SDS011;64651;47.540;19.088;2023-05-10T23:27:29;7.37;;;2.60;;
75971;SDS011;64651;47.540;19.088;2023-05-10T23:32:31;8.30;;;2.55;;
75971;SDS011;64651;47.540;19.088;2023-05-10T23:37:34;6.75;;;2.33;;
75971;SDS011;64651;47.540;19.088;2023-05-10T23:42:37;7.68;;;2.70;;
75971;SDS011;64651;47.540;19.088;2023-05-10T23:47:39;6.82;;;2.42;;
75971;SDS011;64651;47.540;19.088;2023-05-10T23:52:42;6.60;;;2.43;;
75971;SDS011;64651;47.540;19.088;2023-05-10T23:57:44;6.35;;;2.58;;
